createdAt,value
2022-08-16T00:01:33.722Z,84.72
2022-08-16T00:04:05.500Z,85.34
2022-08-16T00:06:33.502Z,85.39
2022-08-16T00:09:01.197Z,86.05
2022-08-16T00:11:28.899Z,86.81
2022-08-16T00:13:56.707Z,86.51
2022-08-16T00:17:01.704Z,86.59
2022-08-16T00:19:15.707Z,87.42
2022-08-16T00:21:43.562Z,87.44
2022-08-16T00:24:12.405Z,87.62
2022-08-16T00:26:44.257Z,88.06
2022-08-16T00:29:15.963Z,89.09
2022-08-16T00:31:59.720Z,89.46
2022-08-16T00:34:43.710Z,90.62
2022-08-16T00:37:20.463Z,91.13
2022-08-16T00:39:57.224Z,91.62
2022-08-16T00:42:30.133Z,91.56
2022-08-16T00:45:09.531Z,91.88
2022-08-16T00:47:49.556Z,92.20
2022-08-16T00:50:18.614Z,91.15
2022-08-16T00:52:50.838Z,91.00
2022-08-16T00:55:22.094Z,90.76
2022-08-16T00:57:59.224Z,90.93
2022-08-16T01:00:30.990Z,91.45
2022-08-16T01:03:05.862Z,91.22
2022-08-16T01:05:39.960Z,92.53
2022-08-16T01:08:35.301Z,93.42
2022-08-16T01:11:00.010Z,93.90
2022-08-16T01:13:32.624Z,94.87
2022-08-16T01:16:03.624Z,95.06
2022-08-16T01:18:40.154Z,96.13
2022-08-16T01:21:33.274Z,96.74
2022-08-16T01:24:53.314Z,97.08
2022-08-16T01:27:06.241Z,97.15
2022-08-16T01:29:57.874Z,97.21
2022-08-16T01:32:41.152Z,97.96
2022-08-16T01:35:17.095Z,98.07
2022-08-16T01:37:53.047Z,98.76
2022-08-16T01:40:29.447Z,98.67
2022-08-16T01:42:58.176Z,98.39
2022-08-16T01:45:39.735Z,98.68
2022-08-16T01:48:19.868Z,98.20
2022-08-16T01:51:09.451Z,98.61
2022-08-16T01:53:40.514Z,99.13
2022-08-16T01:56:23.710Z,99.19
2022-08-16T01:58:55.629Z,99.28
2022-08-16T02:01:26.220Z,99.31
2022-08-16T02:03:58.483Z,99.07
2022-08-16T02:06:40.368Z,100.00
2022-08-16T02:09:17.706Z,100.00
2022-08-16T02:11:53.237Z,100.00
2022-08-16T02:14:26.567Z,100.00
2022-08-16T02:16:57.345Z,100.00
2022-08-16T02:20:00.083Z,100.00
2022-08-16T02:22:34.871Z,100.00
2022-08-16T02:25:10.108Z,100.00
2022-08-16T02:27:39.986Z,100.00
2022-08-16T02:30:37.946Z,100.00
2022-08-16T02:33:03.281Z,100.00
2022-08-16T02:35:31.959Z,100.00
2022-08-16T02:38:01.859Z,100.00
2022-08-16T02:40:37.879Z,100.00
2022-08-16T02:43:09.699Z,100.00
2022-08-16T02:45:39.631Z,100.00
2022-08-16T02:48:28.627Z,100.00
2022-08-16T02:51:06.236Z,100.00
2022-08-16T02:53:37.206Z,100.00
2022-08-16T02:56:09.891Z,100.00
2022-08-16T02:58:39.886Z,100.00
2022-08-16T03:01:12.613Z,100.00
2022-08-16T03:04:49.538Z,100.00
2022-08-16T03:06:42.817Z,100.00
2022-08-16T03:09:22.404Z,100.00
2022-08-16T03:11:54.672Z,100.00
2022-08-16T03:14:24.704Z,100.00
2022-08-16T03:16:59.227Z,100.00
2022-08-16T03:19:47.334Z,100.00
2022-08-16T03:22:18.999Z,100.00
2022-08-16T03:24:57.516Z,100.00
2022-08-16T03:27:30.764Z,100.00
2022-08-16T03:30:16.260Z,100.00
2022-08-16T03:32:47.984Z,100.00
2022-08-16T03:35:22.718Z,100.00
2022-08-16T03:38:02.909Z,100.00
2022-08-16T03:40:39.164Z,100.00
2022-08-16T03:43:20.765Z,100.00
2022-08-16T03:45:55.239Z,100.00
2022-08-16T03:48:36.798Z,100.00
2022-08-16T03:51:13.857Z,100.00
2022-08-16T03:53:57.760Z,100.00
2022-08-16T03:56:30.494Z,100.00
2022-08-16T03:58:59.743Z,100.00
2022-08-16T04:01:33.581Z,100.00
2022-08-16T04:04:02.125Z,100.00
2022-08-16T04:06:30.792Z,100.00
2022-08-16T04:08:58.470Z,100.00
2022-08-16T04:11:26.832Z,100.00
2022-08-16T04:14:32.950Z,100.00
2022-08-16T04:16:55.428Z,100.00
2022-08-16T04:19:37.632Z,100.00
2022-08-16T04:22:13.718Z,100.00
2022-08-16T04:24:54.837Z,100.00
2022-08-16T04:27:29.028Z,100.00
2022-08-16T04:30:02.900Z,100.00
2022-08-16T04:32:37.800Z,100.00
2022-08-16T04:35:16.471Z,100.00
2022-08-16T04:37:45.544Z,100.00
2022-08-16T04:41:14.816Z,100.00
2022-08-16T04:43:43.689Z,100.00
2022-08-16T04:46:26.567Z,100.00
2022-08-16T04:49:08.034Z,100.00
2022-08-16T04:51:36.311Z,100.00
2022-08-16T04:54:05.089Z,100.00
2022-08-16T04:56:34.333Z,100.00
2022-08-16T04:59:11.159Z,100.00
2022-08-16T05:01:58.191Z,100.00
2022-08-16T05:04:30.095Z,100.00
2022-08-16T05:06:58.580Z,100.00
2022-08-16T05:09:42.782Z,100.00
2022-08-16T05:12:21.960Z,100.00
2022-08-16T05:15:01.760Z,100.00
2022-08-16T05:17:34.090Z,100.00
2022-08-16T05:20:38.750Z,100.00
2022-08-16T05:23:01.193Z,100.00
2022-08-16T05:25:30.045Z,100.00
2022-08-16T05:28:10.655Z,100.00
2022-08-16T05:30:43.301Z,100.00
2022-08-16T05:33:20.935Z,100.00
2022-08-16T05:35:54.939Z,100.00
2022-08-16T05:38:39.650Z,100.00
2022-08-16T05:41:13.816Z,100.00
2022-08-16T05:43:46.540Z,100.00
2022-08-16T05:46:28.557Z,100.00
2022-08-16T05:49:03.695Z,100.00
2022-08-16T05:51:38.587Z,100.00
2022-08-16T05:54:11.212Z,100.00
2022-08-16T05:56:40.473Z,100.00
2022-08-16T05:59:11.097Z,100.00
2022-08-16T06:01:40.018Z,100.00
2022-08-16T06:04:13.618Z,100.00
2022-08-16T06:06:58.826Z,100.00
2022-08-16T06:09:42.639Z,100.00
2022-08-16T06:12:12.668Z,100.00
2022-08-16T06:14:58.492Z,100.00
2022-08-16T06:17:41.513Z,100.00
2022-08-16T06:20:18.402Z,100.00
2022-08-16T06:22:57.494Z,100.00
2022-08-16T06:25:36.221Z,100.00
2022-08-16T06:28:09.494Z,100.00
2022-08-16T06:30:44.210Z,100.00
2022-08-16T06:33:19.746Z,100.00
2022-08-16T06:35:59.521Z,99.66
2022-08-16T06:38:33.456Z,98.59
2022-08-16T06:41:13.895Z,97.57
2022-08-16T06:43:44.120Z,96.06
2022-08-16T06:46:32.006Z,96.89
2022-08-16T06:49:05.240Z,93.98
2022-08-16T06:51:46.340Z,92.25
2022-08-16T06:54:22.908Z,90.17
2022-08-16T06:56:55.344Z,91.69
2022-08-16T06:59:27.150Z,89.05
2022-08-16T07:01:59.651Z,87.49
2022-08-16T07:04:33.299Z,85.00
2022-08-16T07:07:12.292Z,86.04
2022-08-16T07:09:44.191Z,86.54
2022-08-16T07:12:12.523Z,86.03
2022-08-16T07:14:47.882Z,81.14
2022-08-16T07:17:18.283Z,79.85
2022-08-16T07:20:02.824Z,80.95
2022-08-16T07:23:13.383Z,77.76
2022-08-16T07:25:50.672Z,78.87
2022-08-16T07:28:20.652Z,79.59
2022-08-16T07:30:53.114Z,74.76
2022-08-16T07:33:52.712Z,72.66
2022-08-16T07:36:22.504Z,72.18
2022-08-16T07:38:52.557Z,74.23
2022-08-16T07:41:23.080Z,70.35
2022-08-16T07:43:55.750Z,68.70
2022-08-16T07:46:38.609Z,64.99
2022-08-16T07:49:32.472Z,60.93
2022-08-16T07:52:01.703Z,60.67
2022-08-16T07:54:48.993Z,59.37
2022-08-16T07:57:24.089Z,55.58
2022-08-16T07:59:57.203Z,53.96
2022-08-16T08:02:27.423Z,59.74
2022-08-16T08:04:57.875Z,58.35
2022-08-16T08:07:28.808Z,57.42
2022-08-16T08:10:01.605Z,52.81
2022-08-16T08:12:36.063Z,54.62
2022-08-16T08:15:09.804Z,52.48
2022-08-16T08:17:42.812Z,55.35
2022-08-16T08:20:26.379Z,56.58
2022-08-16T08:22:59.933Z,58.27
2022-08-16T08:25:54.382Z,57.93
2022-08-16T08:28:19.945Z,56.05
2022-08-16T08:31:01.561Z,57.99
2022-08-16T08:33:34.624Z,57.97
2022-08-16T08:36:05.570Z,59.29
2022-08-16T08:38:44.997Z,57.63
2022-08-16T08:41:18.208Z,58.27
2022-08-16T08:43:50.423Z,59.06
2022-08-16T08:46:21.317Z,60.62
2022-08-16T08:49:00.084Z,61.27
2022-08-16T08:51:37.088Z,60.74
2022-08-16T08:54:09.509Z,60.12
2022-08-16T08:56:45.387Z,58.77
2022-08-16T08:59:27.352Z,57.75
2022-08-16T09:01:57.972Z,59.63
2022-08-16T09:04:41.679Z,60.17
2022-08-16T09:07:16.916Z,60.55
2022-08-16T09:09:47.676Z,58.02
2022-08-16T09:12:30.162Z,58.44
2022-08-16T09:15:15.945Z,57.86
2022-08-16T09:17:54.931Z,58.80
2022-08-16T09:20:26.938Z,59.09
2022-08-16T09:22:55.715Z,55.75
2022-08-16T09:25:34.299Z,56.45
2022-08-16T09:28:08.871Z,57.00
2022-08-16T09:30:43.346Z,55.28
2022-08-16T09:33:14.496Z,54.99
2022-08-16T09:35:43.127Z,55.14
2022-08-16T09:38:22.326Z,55.05
2022-08-16T09:41:00.624Z,55.54
2022-08-16T09:43:58.280Z,54.09
2022-08-16T09:46:45.267Z,53.51
2022-08-16T09:49:05.020Z,51.45
2022-08-16T09:51:37.583Z,52.81
2022-08-16T09:54:06.120Z,52.52
2022-08-16T09:56:39.715Z,53.13
2022-08-16T09:59:23.415Z,52.45
2022-08-16T10:01:52.950Z,52.88
2022-08-16T10:04:31.180Z,49.29
2022-08-16T10:07:15.639Z,48.80
2022-08-16T10:09:55.492Z,46.44
2022-08-16T10:12:43.405Z,47.34
2022-08-16T10:15:16.118Z,46.96
2022-08-16T10:18:00.927Z,48.21
2022-08-16T10:20:32.525Z,47.51
2022-08-16T10:23:07.462Z,49.22
2022-08-16T10:27:17.461Z,47.46
2022-08-16T10:28:28.474Z,48.46
2022-08-16T10:30:58.775Z,48.47
2022-08-16T10:33:33.181Z,48.98
2022-08-16T10:36:03.861Z,46.49
2022-08-16T10:38:36.750Z,45.38
2022-08-16T10:41:05.617Z,46.56
2022-08-16T10:43:35.215Z,46.12
2022-08-16T10:46:04.107Z,43.29
2022-08-16T10:48:54.942Z,44.55
2022-08-16T10:51:34.185Z,43.63
2022-08-16T10:54:29.681Z,42.94
2022-08-16T10:56:58.636Z,42.42
2022-08-16T10:59:39.241Z,43.03
2022-08-16T11:03:04.738Z,43.15
2022-08-16T11:05:08.863Z,43.79
2022-08-16T11:07:52.535Z,44.16
2022-08-16T11:16:25.412Z,44.10
2022-08-16T11:19:05.835Z,47.40
2022-08-16T11:24:41.244Z,44.52
2022-08-16T11:27:23.655Z,45.08
2022-08-16T11:29:55.757Z,40.36
2022-08-16T11:32:31.787Z,42.48
2022-08-16T11:35:13.202Z,41.92
2022-08-16T11:40:38.573Z,40.83
2022-08-16T11:43:10.012Z,40.74
2022-08-16T11:45:39.402Z,40.34
2022-08-16T11:48:10.757Z,39.91
2022-08-16T11:50:38.480Z,38.85
2022-08-16T11:53:08.531Z,37.37
2022-08-16T11:55:38.296Z,38.24
2022-08-16T11:58:07.427Z,38.00
2022-08-16T12:00:51.650Z,38.14
2022-08-16T12:03:34.846Z,38.00
2022-08-16T12:06:10.961Z,38.20
2022-08-16T12:08:57.429Z,38.23
2022-08-16T12:11:31.405Z,35.80
2022-08-16T12:13:59.910Z,36.18
2022-08-16T12:16:31.220Z,38.99
2022-08-16T12:19:02.382Z,38.44
2022-08-16T12:21:36.226Z,36.33
2022-08-16T12:24:22.179Z,37.48
2022-08-16T12:26:51.977Z,38.79
2022-08-16T12:29:20.466Z,37.45
2022-08-16T12:32:00.726Z,39.38
2022-08-16T12:34:30.500Z,37.91
2022-08-16T12:36:59.351Z,39.14
2022-08-16T12:39:28.997Z,36.20
2022-08-16T12:41:57.553Z,37.51
2022-08-16T12:44:26.615Z,37.87
2022-08-16T12:47:16.694Z,38.09
2022-08-16T12:49:44.328Z,37.78
2022-08-16T12:52:32.852Z,37.52
2022-08-16T12:55:03.501Z,37.23
2022-08-16T12:57:36.668Z,36.99
2022-08-16T13:00:07.100Z,37.96
2022-08-16T13:02:46.679Z,36.73
2022-08-16T13:05:15.857Z,37.90
2022-08-16T13:07:45.354Z,39.22
2022-08-16T13:10:36.842Z,38.85
2022-08-16T13:13:06.699Z,38.99
2022-08-16T13:15:55.563Z,36.65
2022-08-16T13:18:33.923Z,38.64
2022-08-16T13:21:03.940Z,39.50
2022-08-16T13:23:32.285Z,37.17
2022-08-16T13:26:01.601Z,36.66
2022-08-16T13:28:29.269Z,36.81
2022-08-16T13:30:58.919Z,37.36
2022-08-16T13:33:30.439Z,37.58
2022-08-16T13:36:01.432Z,37.88
2022-08-16T13:38:36.429Z,38.50
2022-08-16T13:41:08.251Z,37.85
2022-08-16T13:43:38.794Z,37.18
2022-08-16T13:46:07.608Z,37.98
2022-08-16T13:48:42.908Z,37.51
2022-08-16T13:51:16.812Z,35.56
2022-08-16T13:53:45.848Z,35.46
2022-08-16T13:56:25.355Z,37.09
2022-08-16T13:58:55.175Z,34.86
2022-08-16T14:01:23.571Z,33.37
2022-08-16T14:03:55.763Z,33.88
2022-08-16T14:06:23.663Z,35.07
2022-08-16T14:08:59.110Z,33.57
2022-08-16T14:11:36.153Z,34.87
2022-08-16T14:14:05.545Z,36.19
2022-08-16T14:16:35.110Z,32.41
2022-08-16T14:19:03.520Z,33.28
2022-08-16T14:21:34.797Z,32.79
2022-08-16T14:24:12.788Z,35.50
2022-08-16T14:26:52.850Z,34.25
2022-08-16T14:29:21.280Z,35.06
2022-08-16T14:31:54.108Z,34.10
2022-08-16T14:34:25.543Z,35.32
2022-08-16T14:36:56.759Z,35.24
2022-08-16T14:39:24.622Z,33.98
2022-08-16T14:41:55.800Z,34.55
2022-08-16T14:44:24.318Z,33.26
2022-08-16T14:46:54.667Z,34.68
2022-08-16T14:49:23.503Z,35.72
2022-08-16T14:51:51.625Z,34.11
2022-08-16T14:54:20.039Z,34.02
2022-08-16T14:56:54.888Z,34.28
2022-08-16T14:59:24.521Z,33.51
2022-08-16T15:01:59.274Z,34.28
2022-08-16T15:04:32.478Z,33.65
2022-08-16T15:07:10.968Z,34.06
2022-08-16T15:09:44.309Z,34.14
2022-08-16T15:12:31.172Z,33.92
2022-08-16T15:15:13.155Z,34.65
2022-08-16T15:17:54.186Z,34.98
2022-08-16T15:20:26.450Z,34.29
2022-08-16T15:22:55.111Z,34.72
2022-08-16T15:25:27.557Z,34.90
2022-08-16T15:27:58.549Z,35.40
2022-08-16T15:30:56.979Z,33.99
2022-08-16T15:33:19.736Z,34.76
2022-08-16T15:35:50.081Z,35.78
2022-08-16T15:38:56.901Z,33.59
2022-08-16T15:41:06.754Z,33.96
2022-08-16T15:43:40.021Z,34.69
2022-08-16T15:46:54.638Z,34.91
2022-08-16T15:49:13.667Z,34.96
2022-08-16T15:51:43.590Z,34.99
2022-08-16T15:54:29.008Z,36.00
2022-08-16T15:57:04.292Z,35.28
2022-08-16T15:59:48.258Z,35.94
2022-08-16T16:02:27.625Z,35.44
2022-08-16T16:05:00.703Z,36.20
2022-08-16T16:07:30.455Z,36.51
2022-08-16T16:09:59.205Z,36.13
2022-08-16T16:15:16.514Z,35.42
2022-08-16T16:17:50.797Z,35.85
2022-08-16T16:20:20.983Z,35.58
2022-08-16T16:22:49.317Z,36.51
2022-08-16T16:25:18.670Z,36.82
2022-08-16T16:27:55.258Z,36.30
2022-08-16T16:30:33.258Z,36.14
2022-08-16T16:33:15.604Z,36.47
2022-08-16T16:35:56.663Z,36.68
2022-08-16T16:38:28.529Z,37.11
2022-08-16T16:40:56.199Z,36.91
2022-08-16T16:43:25.727Z,37.40
2022-08-16T16:45:59.139Z,37.03
2022-08-16T16:48:34.365Z,37.32
2022-08-16T16:51:09.145Z,37.15
2022-08-16T16:53:42.069Z,37.39
2022-08-16T16:56:19.682Z,37.28
2022-08-16T16:59:01.130Z,37.67
2022-08-16T17:01:41.401Z,37.54
2022-08-16T17:04:31.461Z,37.80
2022-08-16T17:07:02.706Z,38.31
2022-08-16T17:09:30.701Z,38.36
2022-08-16T17:11:59.355Z,38.64
2022-08-16T17:14:32.929Z,38.76
2022-08-16T17:17:06.417Z,37.93
2022-08-16T17:19:40.344Z,38.13
2022-08-16T17:22:14.862Z,38.17
2022-08-16T17:24:45.199Z,38.65
2022-08-16T17:27:17.978Z,39.00
2022-08-16T17:29:47.450Z,38.68
2022-08-16T17:32:34.383Z,38.69
2022-08-16T17:35:18.299Z,39.57
2022-08-16T17:37:51.181Z,39.46
2022-08-16T17:40:25.858Z,39.93
2022-08-16T17:43:10.243Z,39.63
2022-08-16T17:45:39.150Z,39.65
2022-08-16T17:48:07.256Z,41.24
2022-08-16T17:50:40.610Z,42.80
2022-08-16T17:53:09.059Z,44.08
2022-08-16T17:55:39.710Z,44.91
2022-08-16T17:58:19.822Z,45.60
2022-08-16T18:00:52.187Z,45.60
2022-08-16T18:04:07.373Z,46.03
2022-08-16T18:06:15.638Z,46.90
2022-08-16T18:08:43.409Z,47.31
2022-08-16T18:11:13.265Z,46.75
2022-08-16T18:13:43.077Z,47.54
2022-08-16T18:16:11.406Z,48.74
2022-08-16T18:18:39.405Z,48.83
2022-08-16T18:21:25.113Z,49.44
2022-08-16T18:23:54.134Z,50.48
2022-08-16T18:26:21.993Z,51.13
2022-08-16T18:28:50.431Z,50.66
2022-08-16T18:31:18.344Z,51.10
2022-08-16T18:36:20.144Z,52.39
2022-08-16T18:38:49.603Z,53.79
2022-08-16T18:41:19.128Z,54.83
2022-08-16T18:43:54.412Z,54.89
2022-08-16T18:46:34.510Z,55.13
2022-08-16T18:49:02.150Z,55.98
2022-08-16T18:51:30.428Z,55.44
2022-08-16T18:53:58.075Z,55.45
2022-08-16T18:56:55.897Z,56.95
2022-08-16T18:59:14.732Z,57.75
2022-08-16T19:01:47.626Z,56.99
2022-08-16T19:04:54.948Z,55.94
2022-08-16T19:07:07.385Z,57.75
2022-08-16T19:09:35.016Z,57.40
2022-08-16T19:12:06.178Z,57.91
2022-08-16T19:14:33.808Z,58.56
2022-08-16T19:17:01.442Z,59.25
2022-08-16T19:19:29.072Z,60.20
2022-08-16T19:21:58.218Z,60.39
2022-08-16T19:24:29.222Z,61.03
2022-08-16T19:26:57.273Z,61.32
2022-08-16T19:29:26.309Z,61.70
2022-08-16T19:31:53.930Z,62.54
2022-08-16T19:34:21.549Z,64.03
2022-08-16T19:36:49.172Z,64.77
2022-08-16T19:39:18.123Z,64.03
2022-08-16T19:41:52.990Z,64.63
2022-08-16T19:44:22.023Z,64.76
2022-08-16T19:46:51.458Z,65.89
2022-08-16T19:49:19.125Z,66.08
2022-08-16T19:51:49.163Z,65.93
2022-08-16T19:54:17.984Z,65.98
2022-08-16T19:56:45.606Z,67.73
2022-08-16T19:59:19.849Z,68.02
2022-08-16T20:01:52.445Z,67.59
2022-08-16T20:04:21.438Z,70.23
2022-08-16T20:06:49.135Z,69.58
2022-08-16T20:09:16.914Z,69.67
2022-08-16T20:11:45.165Z,69.86
2022-08-16T20:14:24.296Z,70.40
2022-08-16T20:16:56.974Z,71.46
2022-08-16T20:19:24.990Z,71.55
2022-08-16T20:21:54.033Z,72.76
2022-08-16T20:24:37.124Z,73.79
2022-08-16T20:27:07.274Z,73.12
2022-08-16T20:29:35.158Z,74.01
2022-08-16T20:32:05.425Z,74.94
2022-08-16T20:34:33.425Z,74.23
2022-08-16T20:37:06.319Z,75.00
2022-08-16T20:39:34.081Z,75.16
2022-08-16T20:42:01.740Z,75.55
2022-08-16T20:44:29.394Z,75.95
2022-08-16T20:46:57.110Z,76.17
2022-08-16T20:49:28.332Z,75.57
2022-08-16T20:51:59.369Z,76.09
2022-08-16T20:54:28.501Z,77.58
2022-08-16T20:56:56.460Z,78.46
2022-08-16T20:59:24.202Z,77.88
2022-08-16T21:01:51.988Z,78.13
2022-08-16T21:04:20.483Z,78.76
2022-08-16T21:06:53.749Z,78.71
2022-08-16T21:09:23.886Z,79.75
2022-08-16T21:11:53.918Z,79.98
2022-08-16T21:14:21.653Z,80.19
2022-08-16T21:16:49.351Z,80.24
2022-08-16T21:19:17.636Z,81.73
2022-08-16T21:21:45.347Z,80.79
2022-08-16T21:24:15.512Z,80.88
2022-08-16T21:26:49.796Z,80.07
2022-08-16T21:29:24.905Z,79.84
2022-08-16T21:31:53.931Z,80.07
2022-08-16T21:34:21.919Z,79.72
2022-08-16T21:36:49.833Z,80.15
2022-08-16T21:39:18.828Z,79.95
2022-08-16T21:41:46.474Z,80.19
2022-08-16T21:44:14.257Z,80.29
2022-08-16T21:46:41.876Z,80.76
2022-08-16T21:49:09.538Z,80.15
2022-08-16T21:51:37.261Z,80.09
2022-08-16T21:54:05.466Z,80.39
2022-08-16T21:56:34.489Z,81.37
2022-08-16T21:59:06.212Z,80.93
2022-08-16T22:01:33.924Z,81.30
2022-08-16T22:04:35.885Z,82.06
2022-08-16T22:06:49.439Z,82.25
2022-08-16T22:09:17.124Z,82.45
2022-08-16T22:11:46.211Z,82.66
2022-08-16T22:14:14.046Z,82.25
2022-08-16T22:16:43.434Z,83.51
2022-08-16T22:19:13.184Z,83.27
2022-08-16T22:21:41.159Z,83.88
2022-08-16T22:24:09.028Z,82.37
2022-08-16T22:26:43.141Z,84.08
2022-08-16T22:29:14.779Z,84.32
2022-08-16T22:31:43.474Z,84.83
2022-08-16T22:34:11.243Z,85.49
2022-08-16T22:36:39.373Z,85.71
2022-08-16T22:39:13.004Z,86.53
2022-08-16T22:41:43.289Z,86.76
2022-08-16T22:44:13.495Z,88.68
2022-08-16T22:46:41.254Z,87.75
2022-08-16T22:49:09.679Z,89.44
2022-08-16T22:51:38.847Z,88.24
2022-08-16T22:54:42.513Z,88.48
2022-08-16T22:56:56.443Z,89.57
2022-08-16T22:59:25.904Z,89.76
2022-08-16T23:01:53.836Z,89.70
2022-08-16T23:04:21.659Z,89.81
2022-08-16T23:06:49.354Z,90.47
2022-08-16T23:09:17.045Z,90.33
2022-08-16T23:11:44.840Z,90.10
2022-08-16T23:14:12.601Z,91.83
2022-08-16T23:16:41.614Z,92.88
2022-08-16T23:19:12.530Z,92.25
2022-08-16T23:24:11.917Z,91.95
2022-08-16T23:26:45.833Z,92.62
2022-08-16T23:29:23.796Z,93.99
2022-08-16T23:31:58.280Z,94.19
2022-08-16T23:34:28.221Z,94.74
2022-08-16T23:36:56.517Z,95.08
2022-08-16T23:39:24.431Z,95.03
2022-08-16T23:41:52.373Z,95.11
2022-08-16T23:44:56.859Z,95.80
2022-08-16T23:47:09.587Z,96.86
2022-08-16T23:50:00.799Z,96.98
2022-08-16T23:52:40.576Z,97.51
2022-08-16T23:55:13.496Z,97.73
2022-08-16T23:57:45.933Z,97.60
